sensor_id;sensor_type;location;lat;lon;timestamp;pressure;altitude;pressure_sealevel;temperature;humidity
16613;BME280;8419;52.358;9.752;2022-10-16T00:02:19;100411.00;;;25.58;35.06
16613;BME280;8419;52.358;9.752;2022-10-16T00:05:05;100410.00;;;25.53;35.12
16613;BME280;8419;52.358;9.752;2022-10-16T00:07:51;100411.00;;;25.53;35.10
16613;BME280;8419;52.358;9.752;2022-10-16T00:10:37;100419.00;;;25.58;34.99
16613;BME280;8419;52.358;9.752;2022-10-16T00:13:22;100431.00;;;25.51;35.08
16613;BME280;8419;52.358;9.752;2022-10-16T00:16:09;100415.00;;;25.53;35.03
16613;BME280;8419;52.358;9.752;2022-10-16T00:18:55;100418.00;;;25.52;35.06
16613;BME280;8419;52.358;9.752;2022-10-16T00:21:41;100416.00;;;25.48;35.08
16613;BME280;8419;52.358;9.752;2022-10-16T00:24:27;100416.00;;;25.43;35.11
16613;BME280;8419;52.358;9.752;2022-10-16T00:27:13;100428.00;;;25.45;35.02
16613;BME280;8419;52.358;9.752;2022-10-16T00:29:58;100427.00;;;25.38;35.07
16613;BME280;8419;52.358;9.752;2022-10-16T00:32:44;100427.00;;;25.34;35.08
16613;BME280;8419;52.358;9.752;2022-10-16T00:35:31;100431.00;;;25.35;34.97
16613;BME280;8419;52.358;9.752;2022-10-16T00:38:16;100418.00;;;25.32;34.98
16613;BME280;8419;52.358;9.752;2022-10-16T00:41:02;100431.00;;;25.34;34.90
16613;BME280;8419;52.358;9.752;2022-10-16T00:43:49;100436.00;;;25.30;34.93
16613;BME280;8419;52.358;9.752;2022-10-16T00:46:38;100436.00;;;25.22;35.04
16613;BME280;8419;52.358;9.752;2022-10-16T00:49:24;100439.00;;;25.19;35.04
16613;BME280;8419;52.358;9.752;2022-10-16T00:52:10;100444.00;;;25.11;35.17
16613;BME280;8419;52.358;9.752;2022-10-16T00:54:58;100437.00;;;25.08;35.26
16613;BME280;8419;52.358;9.752;2022-10-16T00:57:44;100451.00;;;25.11;35.27
16613;BME280;8419;52.358;9.752;2022-10-16T01:00:30;100449.00;;;25.14;35.25
16613;BME280;8419;52.358;9.752;2022-10-16T01:03:27;100454.00;;;25.12;35.34
16613;BME280;8419;52.358;9.752;2022-10-16T01:06:31;100441.00;;;25.17;35.36
16613;BME280;8419;52.358;9.752;2022-10-16T01:09:25;100442.00;;;25.08;35.59
16613;BME280;8419;52.358;9.752;2022-10-16T01:12:16;100449.00;;;25.12;35.60
16613;BME280;8419;52.358;9.752;2022-10-16T01:15:11;100448.00;;;25.10;35.71
16613;BME280;8419;52.358;9.752;2022-10-16T01:18:06;100450.00;;;25.08;35.84
16613;BME280;8419;52.358;9.752;2022-10-16T01:20:56;100448.00;;;25.11;35.89
16613;BME280;8419;52.358;9.752;2022-10-16T01:23:50;100447.00;;;25.06;36.08
16613;BME280;8419;52.358;9.752;2022-10-16T01:29:40;100448.00;;;24.93;36.64
16613;BME280;8419;52.358;9.752;2022-10-16T01:32:31;100452.00;;;24.91;36.67
16613;BME280;8419;52.358;9.752;2022-10-16T01:35:23;100457.00;;;24.91;36.74
16613;BME280;8419;52.358;9.752;2022-10-16T01:38:14;100465.00;;;24.89;36.88
16613;BME280;8419;52.358;9.752;2022-10-16T01:41:08;100452.00;;;25.03;36.70
16613;BME280;8419;52.358;9.752;2022-10-16T01:43:59;100453.00;;;24.95;36.88
16613;BME280;8419;52.358;9.752;2022-10-16T01:46:50;100452.00;;;24.98;37.02
16613;BME280;8419;52.358;9.752;2022-10-16T01:49:38;100466.00;;;24.96;37.08
16613;BME280;8419;52.358;9.752;2022-10-16T01:52:26;100471.00;;;25.01;37.17
16613;BME280;8419;52.358;9.752;2022-10-16T01:55:21;100461.00;;;24.93;37.29
16613;BME280;8419;52.358;9.752;2022-10-16T01:58:09;100468.00;;;24.98;37.29
16613;BME280;8419;52.358;9.752;2022-10-16T02:00:55;100464.00;;;24.93;37.37
16613;BME280;8419;52.358;9.752;2022-10-16T02:03:44;100458.00;;;24.91;37.44
16613;BME280;8419;52.358;9.752;2022-10-16T02:06:32;100464.00;;;24.99;37.37
16613;BME280;8419;52.358;9.752;2022-10-16T02:09:17;100467.00;;;25.07;37.21
16613;BME280;8419;52.358;9.752;2022-10-16T02:12:08;100462.00;;;25.00;37.35
16613;BME280;8419;52.358;9.752;2022-10-16T02:14:55;100466.00;;;24.97;37.42
16613;BME280;8419;52.358;9.752;2022-10-16T02:17:42;100466.00;;;24.98;37.42
16613;BME280;8419;52.358;9.752;2022-10-16T02:20:29;100463.00;;;24.94;37.44
16613;BME280;8419;52.358;9.752;2022-10-16T02:23:22;100473.00;;;25.09;37.18
16613;BME280;8419;52.358;9.752;2022-10-16T02:26:13;100475.00;;;25.02;37.30
16613;BME280;8419;52.358;9.752;2022-10-16T02:29:03;100479.00;;;25.04;37.23
16613;BME280;8419;52.358;9.752;2022-10-16T02:31:54;100482.00;;;25.03;37.31
16613;BME280;8419;52.358;9.752;2022-10-16T02:34:41;100491.00;;;25.03;37.32
16613;BME280;8419;52.358;9.752;2022-10-16T02:37:28;100497.00;;;25.02;37.38
16613;BME280;8419;52.358;9.752;2022-10-16T02:40:15;100487.00;;;24.93;37.58
16613;BME280;8419;52.358;9.752;2022-10-16T02:43:04;100485.00;;;24.97;37.57
16613;BME280;8419;52.358;9.752;2022-10-16T02:45:50;100469.00;;;24.87;37.81
16613;BME280;8419;52.358;9.752;2022-10-16T02:48:36;100473.00;;;24.78;37.99
16613;BME280;8419;52.358;9.752;2022-10-16T02:51:22;100478.00;;;24.82;37.93
16613;BME280;8419;52.358;9.752;2022-10-16T02:54:10;100481.00;;;24.79;38.05
16613;BME280;8419;52.358;9.752;2022-10-16T02:56:56;100490.00;;;24.78;38.13
16613;BME280;8419;52.358;9.752;2022-10-16T02:59:42;100490.00;;;24.78;38.17
16613;BME280;8419;52.358;9.752;2022-10-16T03:02:27;100487.00;;;24.73;38.25
16613;BME280;8419;52.358;9.752;2022-10-16T03:05:13;100481.00;;;24.70;38.37
16613;BME280;8419;52.358;9.752;2022-10-16T03:07:59;100486.00;;;24.69;38.41
16613;BME280;8419;52.358;9.752;2022-10-16T03:10:46;100486.00;;;24.65;38.49
16613;BME280;8419;52.358;9.752;2022-10-16T03:13:31;100485.00;;;24.61;38.62
16613;BME280;8419;52.358;9.752;2022-10-16T03:16:17;100486.00;;;24.60;38.68
16613;BME280;8419;52.358;9.752;2022-10-16T03:19:03;100488.00;;;24.61;38.67
16613;BME280;8419;52.358;9.752;2022-10-16T03:21:48;100499.00;;;24.61;38.70
16613;BME280;8419;52.358;9.752;2022-10-16T03:24:34;100502.00;;;24.58;38.79
16613;BME280;8419;52.358;9.752;2022-10-16T03:27:19;100505.00;;;24.60;38.77
16613;BME280;8419;52.358;9.752;2022-10-16T03:30:08;100501.00;;;24.64;38.78
16613;BME280;8419;52.358;9.752;2022-10-16T03:32:54;100489.00;;;24.62;38.82
16613;BME280;8419;52.358;9.752;2022-10-16T03:35:40;100483.00;;;24.61;38.88
16613;BME280;8419;52.358;9.752;2022-10-16T03:38:26;100485.00;;;24.61;38.91
16613;BME280;8419;52.358;9.752;2022-10-16T03:41:13;100488.00;;;24.58;38.95
16613;BME280;8419;52.358;9.752;2022-10-16T03:43:58;100501.00;;;24.54;39.06
16613;BME280;8419;52.358;9.752;2022-10-16T03:46:44;100497.00;;;24.53;39.08
16613;BME280;8419;52.358;9.752;2022-10-16T03:49:30;100499.00;;;24.51;39.09
16613;BME280;8419;52.358;9.752;2022-10-16T03:52:15;100496.00;;;24.43;39.26
16613;BME280;8419;52.358;9.752;2022-10-16T03:55:01;100498.00;;;24.38;39.28
16613;BME280;8419;52.358;9.752;2022-10-16T03:57:47;100496.00;;;24.36;39.32
16613;BME280;8419;52.358;9.752;2022-10-16T04:00:33;100491.00;;;24.32;39.37
16613;BME280;8419;52.358;9.752;2022-10-16T04:03:19;100493.00;;;24.30;39.42
16613;BME280;8419;52.358;9.752;2022-10-16T04:06:05;100496.00;;;24.24;39.54
16613;BME280;8419;52.358;9.752;2022-10-16T04:08:51;100490.00;;;24.20;39.61
16613;BME280;8419;52.358;9.752;2022-10-16T04:11:37;100494.00;;;24.12;39.75
16613;BME280;8419;52.358;9.752;2022-10-16T04:14:23;100502.00;;;24.12;39.79
16613;BME280;8419;52.358;9.752;2022-10-16T04:17:09;100504.00;;;24.19;39.73
16613;BME280;8419;52.358;9.752;2022-10-16T04:19:55;100512.00;;;24.23;39.71
16613;BME280;8419;52.358;9.752;2022-10-16T04:22:41;100521.00;;;24.29;39.66
16613;BME280;8419;52.358;9.752;2022-10-16T04:25:26;100519.00;;;24.32;39.59
16613;BME280;8419;52.358;9.752;2022-10-16T04:28:12;100528.00;;;24.33;39.63
16613;BME280;8419;52.358;9.752;2022-10-16T04:30:58;100513.00;;;24.37;39.58
16613;BME280;8419;52.358;9.752;2022-10-16T04:33:44;100521.00;;;24.42;39.56
16613;BME280;8419;52.358;9.752;2022-10-16T04:36:29;100525.00;;;24.39;39.62
16613;BME280;8419;52.358;9.752;2022-10-16T04:39:16;100536.00;;;24.38;39.65
16613;BME280;8419;52.358;9.752;2022-10-16T04:42:01;100541.00;;;24.34;39.70
16613;BME280;8419;52.358;9.752;2022-10-16T04:44:47;100534.00;;;24.31;39.75
16613;BME280;8419;52.358;9.752;2022-10-16T04:47:33;100523.00;;;24.27;39.80
16613;BME280;8419;52.358;9.752;2022-10-16T04:50:21;100529.00;;;24.22;39.84
16613;BME280;8419;52.358;9.752;2022-10-16T04:53:07;100531.00;;;24.15;39.94
16613;BME280;8419;52.358;9.752;2022-10-16T04:55:52;100526.00;;;24.12;40.04
16613;BME280;8419;52.358;9.752;2022-10-16T04:58:38;100537.00;;;24.19;39.96
16613;BME280;8419;52.358;9.752;2022-10-16T05:01:23;100527.00;;;24.26;39.86
16613;BME280;8419;52.358;9.752;2022-10-16T05:04:09;100526.00;;;24.22;39.89
16613;BME280;8419;52.358;9.752;2022-10-16T05:06:55;100524.00;;;24.26;39.87
16613;BME280;8419;52.358;9.752;2022-10-16T05:09:42;100537.00;;;24.22;39.99
16613;BME280;8419;52.358;9.752;2022-10-16T05:12:28;100543.00;;;24.23;40.05
16613;BME280;8419;52.358;9.752;2022-10-16T05:15:13;100553.00;;;24.20;40.15
16613;BME280;8419;52.358;9.752;2022-10-16T05:17:59;100558.00;;;24.25;40.10
16613;BME280;8419;52.358;9.752;2022-10-16T05:20:45;100551.00;;;24.23;40.15
16613;BME280;8419;52.358;9.752;2022-10-16T05:23:30;100562.00;;;24.23;40.22
16613;BME280;8419;52.358;9.752;2022-10-16T05:26:16;100553.00;;;24.17;40.33
16613;BME280;8419;52.358;9.752;2022-10-16T05:29:01;100570.00;;;24.23;40.25
16613;BME280;8419;52.358;9.752;2022-10-16T05:31:53;100571.00;;;24.22;40.30
16613;BME280;8419;52.358;9.752;2022-10-16T05:34:38;100570.00;;;24.26;40.33
16613;BME280;8419;52.358;9.752;2022-10-16T05:37:24;100579.00;;;24.28;40.28
16613;BME280;8419;52.358;9.752;2022-10-16T05:40:11;100584.00;;;24.31;40.31
16613;BME280;8419;52.358;9.752;2022-10-16T05:42:57;100576.00;;;24.39;40.24
16613;BME280;8419;52.358;9.752;2022-10-16T05:45:43;100582.00;;;24.33;40.42
16613;BME280;8419;52.358;9.752;2022-10-16T05:48:29;100590.00;;;24.41;40.29
16613;BME280;8419;52.358;9.752;2022-10-16T05:51:15;100583.00;;;24.43;40.24
16613;BME280;8419;52.358;9.752;2022-10-16T05:54:01;100577.00;;;24.46;40.18
16613;BME280;8419;52.358;9.752;2022-10-16T05:56:46;100586.00;;;24.48;40.15
16613;BME280;8419;52.358;9.752;2022-10-16T05:59:32;100592.00;;;24.47;40.17
16613;BME280;8419;52.358;9.752;2022-10-16T06:02:20;100588.00;;;24.40;40.27
16613;BME280;8419;52.358;9.752;2022-10-16T06:05:06;100594.00;;;24.42;40.29
16613;BME280;8419;52.358;9.752;2022-10-16T06:07:52;100592.00;;;24.47;40.16
16613;BME280;8419;52.358;9.752;2022-10-16T06:10:37;100587.00;;;24.42;40.23
16613;BME280;8419;52.358;9.752;2022-10-16T06:13:23;100592.00;;;24.42;40.24
16613;BME280;8419;52.358;9.752;2022-10-16T06:16:09;100600.00;;;24.41;40.30
16613;BME280;8419;52.358;9.752;2022-10-16T06:18:56;100603.00;;;24.42;40.28
16613;BME280;8419;52.358;9.752;2022-10-16T06:21:45;100598.00;;;24.36;40.35
16613;BME280;8419;52.358;9.752;2022-10-16T06:24:30;100594.00;;;24.39;40.33
16613;BME280;8419;52.358;9.752;2022-10-16T06:27:16;100608.00;;;24.44;40.25
16613;BME280;8419;52.358;9.752;2022-10-16T06:30:04;100613.00;;;24.48;40.21
16613;BME280;8419;52.358;9.752;2022-10-16T06:32:50;100618.00;;;24.58;40.11
16613;BME280;8419;52.358;9.752;2022-10-16T06:35:36;100631.00;;;24.49;40.24
16613;BME280;8419;52.358;9.752;2022-10-16T06:38:22;100632.00;;;24.55;40.23
16613;BME280;8419;52.358;9.752;2022-10-16T06:41:11;100620.00;;;24.58;40.19
16613;BME280;8419;52.358;9.752;2022-10-16T06:43:57;100616.00;;;24.68;40.04
16613;BME280;8419;52.358;9.752;2022-10-16T06:46:43;100627.00;;;24.73;39.95
16613;BME280;8419;52.358;9.752;2022-10-16T06:49:28;100627.00;;;24.68;40.06
16613;BME280;8419;52.358;9.752;2022-10-16T06:52:14;100638.00;;;24.73;40.01
16613;BME280;8419;52.358;9.752;2022-10-16T06:55:00;100642.00;;;24.82;39.95
16613;BME280;8419;52.358;9.752;2022-10-16T06:57:47;100642.00;;;24.93;39.80
16613;BME280;8419;52.358;9.752;2022-10-16T07:00:33;100651.00;;;24.95;39.84
16613;BME280;8419;52.358;9.752;2022-10-16T07:03:19;100648.00;;;24.99;39.85
16613;BME280;8419;52.358;9.752;2022-10-16T07:06:07;100644.00;;;25.06;39.80
16613;BME280;8419;52.358;9.752;2022-10-16T07:08:53;100644.00;;;25.22;39.61
16613;BME280;8419;52.358;9.752;2022-10-16T07:11:41;100653.00;;;25.39;39.37
16613;BME280;8419;52.358;9.752;2022-10-16T07:14:26;100644.00;;;25.51;39.28
16613;BME280;8419;52.358;9.752;2022-10-16T07:17:12;100655.00;;;25.58;39.19
16613;BME280;8419;52.358;9.752;2022-10-16T07:19:59;100668.00;;;25.64;39.11
16613;BME280;8419;52.358;9.752;2022-10-16T07:22:44;100670.00;;;25.64;39.09
16613;BME280;8419;52.358;9.752;2022-10-16T07:25:30;100677.00;;;25.55;39.22
16613;BME280;8419;52.358;9.752;2022-10-16T07:28:16;100686.00;;;25.54;39.19
16613;BME280;8419;52.358;9.752;2022-10-16T07:31:02;100682.00;;;25.51;39.19
16613;BME280;8419;52.358;9.752;2022-10-16T07:33:48;100684.00;;;25.44;39.34
16613;BME280;8419;52.358;9.752;2022-10-16T07:36:35;100689.00;;;25.49;39.27
16613;BME280;8419;52.358;9.752;2022-10-16T07:39:21;100701.00;;;25.60;39.13
16613;BME280;8419;52.358;9.752;2022-10-16T07:42:06;100698.00;;;25.67;38.99
16613;BME280;8419;52.358;9.752;2022-10-16T07:44:52;100703.00;;;25.74;38.92
16613;BME280;8419;52.358;9.752;2022-10-16T07:47:38;100701.00;;;25.92;38.69
16613;BME280;8419;52.358;9.752;2022-10-16T07:50:24;100713.00;;;26.11;38.43
16613;BME280;8419;52.358;9.752;2022-10-16T07:53:10;100718.00;;;26.15;38.41
16613;BME280;8419;52.358;9.752;2022-10-16T07:55:58;100715.00;;;26.20;38.37
16613;BME280;8419;52.358;9.752;2022-10-16T07:58:44;100723.00;;;26.22;38.36
16613;BME280;8419;52.358;9.752;2022-10-16T08:01:31;100729.00;;;26.22;38.34
16613;BME280;8419;52.358;9.752;2022-10-16T08:04:16;100724.00;;;26.22;38.39
16613;BME280;8419;52.358;9.752;2022-10-16T08:07:02;100728.00;;;26.36;38.18
16613;BME280;8419;52.358;9.752;2022-10-16T08:09:50;100740.00;;;26.40;38.13
16613;BME280;8419;52.358;9.752;2022-10-16T08:12:36;100739.00;;;26.47;38.06
16613;BME280;8419;52.358;9.752;2022-10-16T08:15:22;100750.00;;;26.64;37.86
16613;BME280;8419;52.358;9.752;2022-10-16T08:18:08;100752.00;;;26.78;37.63
16613;BME280;8419;52.358;9.752;2022-10-16T08:20:59;100755.00;;;26.83;37.53
16613;BME280;8419;52.358;9.752;2022-10-16T08:23:45;100754.00;;;26.71;37.73
16613;BME280;8419;52.358;9.752;2022-10-16T08:26:31;100756.00;;;26.77;37.56
16613;BME280;8419;52.358;9.752;2022-10-16T08:29:16;100771.00;;;26.63;37.68
16613;BME280;8419;52.358;9.752;2022-10-16T08:32:04;100774.00;;;26.59;37.67
16613;BME280;8419;52.358;9.752;2022-10-16T08:34:50;100774.00;;;26.52;37.71
16613;BME280;8419;52.358;9.752;2022-10-16T08:37:36;100769.00;;;26.54;37.65
16613;BME280;8419;52.358;9.752;2022-10-16T08:40:28;100770.00;;;26.58;37.49
16613;BME280;8419;52.358;9.752;2022-10-16T08:43:26;100780.00;;;26.59;37.44
16613;BME280;8419;52.358;9.752;2022-10-16T08:46:24;100776.00;;;26.52;37.38
16613;BME280;8419;52.358;9.752;2022-10-16T08:49:14;100778.00;;;26.61;37.30
16613;BME280;8419;52.358;9.752;2022-10-16T08:52:00;100777.00;;;26.57;37.21
16613;BME280;8419;52.358;9.752;2022-10-16T08:54:48;100779.00;;;26.57;37.24
16613;BME280;8419;52.358;9.752;2022-10-16T08:57:37;100775.00;;;26.66;37.00
16613;BME280;8419;52.358;9.752;2022-10-16T09:00:23;100780.00;;;26.85;36.77
16613;BME280;8419;52.358;9.752;2022-10-16T09:03:17;100782.00;;;27.01;36.44
16613;BME280;8419;52.358;9.752;2022-10-16T09:06:16;100788.00;;;27.22;36.23
16613;BME280;8419;52.358;9.752;2022-10-16T09:09:15;100786.00;;;27.34;36.07
16613;BME280;8419;52.358;9.752;2022-10-16T09:12:12;100793.00;;;27.47;35.84
16613;BME280;8419;52.358;9.752;2022-10-16T09:15:05;100785.00;;;27.50;35.69
16613;BME280;8419;52.358;9.752;2022-10-16T09:17:58;100787.00;;;27.51;35.64
16613;BME280;8419;52.358;9.752;2022-10-16T09:20:51;100790.00;;;27.58;35.54
16613;BME280;8419;52.358;9.752;2022-10-16T09:23:38;100805.00;;;27.64;35.38
16613;BME280;8419;52.358;9.752;2022-10-16T09:26:25;100808.00;;;27.59;35.27
16613;BME280;8419;52.358;9.752;2022-10-16T09:29:13;100809.00;;;27.64;35.17
16613;BME280;8419;52.358;9.752;2022-10-16T09:32:10;100812.00;;;27.73;35.12
16613;BME280;8419;52.358;9.752;2022-10-16T09:34:57;100814.00;;;27.92;34.91
16613;BME280;8419;52.358;9.752;2022-10-16T09:37:45;100817.00;;;28.00;34.79
16613;BME280;8419;52.358;9.752;2022-10-16T09:40:34;100819.00;;;28.09;34.48
16613;BME280;8419;52.358;9.752;2022-10-16T09:43:24;100826.00;;;28.07;34.40
16613;BME280;8419;52.358;9.752;2022-10-16T09:46:24;100823.00;;;28.10;34.29
16613;BME280;8419;52.358;9.752;2022-10-16T09:49:22;100830.00;;;28.19;34.12
16613;BME280;8419;52.358;9.752;2022-10-16T09:52:12;100833.00;;;28.24;34.16
16613;BME280;8419;52.358;9.752;2022-10-16T09:55:00;100835.00;;;28.24;34.21
16613;BME280;8419;52.358;9.752;2022-10-16T09:57:50;100848.00;;;28.47;33.94
16613;BME280;8419;52.358;9.752;2022-10-16T10:00:36;100844.00;;;28.50;33.51
16613;BME280;8419;52.358;9.752;2022-10-16T10:03:34;100853.00;;;28.46;33.31
16613;BME280;8419;52.358;9.752;2022-10-16T10:06:28;100856.00;;;28.51;33.30
16613;BME280;8419;52.358;9.752;2022-10-16T10:09:20;100851.00;;;28.53;33.01
16613;BME280;8419;52.358;9.752;2022-10-16T10:12:17;100862.00;;;28.53;32.72
16613;BME280;8419;52.358;9.752;2022-10-16T10:15:09;100851.00;;;28.65;32.63
16613;BME280;8419;52.358;9.752;2022-10-16T10:17:57;100858.00;;;28.82;32.29
16613;BME280;8419;52.358;9.752;2022-10-16T10:20:43;100872.00;;;28.84;32.32
16613;BME280;8419;52.358;9.752;2022-10-16T10:23:30;100864.00;;;28.87;31.96
16613;BME280;8419;52.358;9.752;2022-10-16T10:26:21;100868.00;;;29.07;31.69
16613;BME280;8419;52.358;9.752;2022-10-16T10:29:14;100860.00;;;29.14;31.47
16613;BME280;8419;52.358;9.752;2022-10-16T10:32:12;100867.00;;;29.19;31.23
16613;BME280;8419;52.358;9.752;2022-10-16T10:35:12;100875.00;;;29.28;30.98
16613;BME280;8419;52.358;9.752;2022-10-16T10:38:12;100875.00;;;29.45;30.65
16613;BME280;8419;52.358;9.752;2022-10-16T10:41:13;100884.00;;;29.47;30.19
16613;BME280;8419;52.358;9.752;2022-10-16T10:44:11;100884.00;;;29.43;30.21
16613;BME280;8419;52.358;9.752;2022-10-16T10:47:08;100888.00;;;29.38;30.38
16613;BME280;8419;52.358;9.752;2022-10-16T10:50:05;100895.00;;;29.34;30.27
16613;BME280;8419;52.358;9.752;2022-10-16T10:52:59;100901.00;;;29.47;30.00
16613;BME280;8419;52.358;9.752;2022-10-16T10:55:54;100895.00;;;29.55;29.65
16613;BME280;8419;52.358;9.752;2022-10-16T10:59:14;100887.00;;;29.60;29.51
16613;BME280;8419;52.358;9.752;2022-10-16T11:02:13;100892.00;;;29.66;29.56
16613;BME280;8419;52.358;9.752;2022-10-16T11:05:30;100880.00;;;29.74;29.32
16613;BME280;8419;52.358;9.752;2022-10-16T11:08:21;100884.00;;;29.63;29.48
16613;BME280;8419;52.358;9.752;2022-10-16T11:11:16;100882.00;;;29.65;29.54
16613;BME280;8419;52.358;9.752;2022-10-16T11:14:06;100887.00;;;29.68;29.54
16613;BME280;8419;52.358;9.752;2022-10-16T11:17:00;100893.00;;;29.91;29.35
16613;BME280;8419;52.358;9.752;2022-10-16T11:19:52;100894.00;;;29.89;29.30
16613;BME280;8419;52.358;9.752;2022-10-16T11:22:43;100905.00;;;29.89;29.12
16613;BME280;8419;52.358;9.752;2022-10-16T11:25:33;100904.00;;;30.04;28.90
16613;BME280;8419;52.358;9.752;2022-10-16T11:28:25;100899.00;;;30.24;28.59
16613;BME280;8419;52.358;9.752;2022-10-16T11:31:17;100898.00;;;30.44;28.30
16613;BME280;8419;52.358;9.752;2022-10-16T11:34:11;100905.00;;;30.77;28.04
16613;BME280;8419;52.358;9.752;2022-10-16T11:37:10;100903.00;;;30.87;27.85
16613;BME280;8419;52.358;9.752;2022-10-16T11:40:02;100910.00;;;30.90;27.54
16613;BME280;8419;52.358;9.752;2022-10-16T11:42:54;100907.00;;;30.83;27.61
16613;BME280;8419;52.358;9.752;2022-10-16T11:45:46;100908.00;;;31.02;27.63
16613;BME280;8419;52.358;9.752;2022-10-16T11:48:38;100917.00;;;31.03;27.47
16613;BME280;8419;52.358;9.752;2022-10-16T11:51:32;100915.00;;;30.97;27.29
16613;BME280;8419;52.358;9.752;2022-10-16T11:54:26;100914.00;;;30.99;27.34
16613;BME280;8419;52.358;9.752;2022-10-16T11:57:17;100906.00;;;31.13;27.18
16613;BME280;8419;52.358;9.752;2022-10-16T12:00:09;100918.00;;;31.25;27.16
16613;BME280;8419;52.358;9.752;2022-10-16T12:03:08;100929.00;;;31.35;27.14
16613;BME280;8419;52.358;9.752;2022-10-16T12:06:19;100915.00;;;31.53;26.94
16613;BME280;8419;52.358;9.752;2022-10-16T12:09:15;100926.00;;;31.59;26.69
16613;BME280;8419;52.358;9.752;2022-10-16T12:12:22;100926.00;;;31.89;26.39
16613;BME280;8419;52.358;9.752;2022-10-16T12:15:21;100928.00;;;32.09;26.29
16613;BME280;8419;52.358;9.752;2022-10-16T12:18:22;100917.00;;;32.66;25.77
16613;BME280;8419;52.358;9.752;2022-10-16T12:21:09;100923.00;;;33.09;25.33
16613;BME280;8419;52.358;9.752;2022-10-16T12:23:57;100932.00;;;33.16;25.02
16613;BME280;8419;52.358;9.752;2022-10-16T12:26:45;100930.00;;;33.46;24.77
16613;BME280;8419;52.358;9.752;2022-10-16T12:29:35;100930.00;;;33.00;24.70
16613;BME280;8419;52.358;9.752;2022-10-16T12:32:29;100924.00;;;33.00;24.66
16613;BME280;8419;52.358;9.752;2022-10-16T12:35:21;100927.00;;;33.12;24.55
16613;BME280;8419;52.358;9.752;2022-10-16T12:38:17;100929.00;;;33.33;24.54
16613;BME280;8419;52.358;9.752;2022-10-16T12:41:05;100929.00;;;33.49;24.29
16613;BME280;8419;52.358;9.752;2022-10-16T12:43:52;100938.00;;;33.33;24.07
16613;BME280;8419;52.358;9.752;2022-10-16T12:46:39;100941.00;;;33.30;24.11
16613;BME280;8419;52.358;9.752;2022-10-16T12:49:32;100941.00;;;33.46;24.10
16613;BME280;8419;52.358;9.752;2022-10-16T12:52:26;100938.00;;;33.64;23.90
16613;BME280;8419;52.358;9.752;2022-10-16T12:55:17;100953.00;;;33.39;24.07
16613;BME280;8419;52.358;9.752;2022-10-16T12:58:16;100954.00;;;33.41;23.89
16613;BME280;8419;52.358;9.752;2022-10-16T13:01:12;100960.00;;;33.62;23.79
16613;BME280;8419;52.358;9.752;2022-10-16T13:04:23;100968.00;;;33.24;23.79
16613;BME280;8419;52.358;9.752;2022-10-16T13:07:33;100970.00;;;32.96;24.07
16613;BME280;8419;52.358;9.752;2022-10-16T13:10:28;100970.00;;;32.50;24.43
16613;BME280;8419;52.358;9.752;2022-10-16T13:13:32;100973.00;;;32.07;24.76
16613;BME280;8419;52.358;9.752;2022-10-16T13:16:30;100966.00;;;31.80;25.33
16613;BME280;8419;52.358;9.752;2022-10-16T13:19:28;100976.00;;;31.66;25.47
16613;BME280;8419;52.358;9.752;2022-10-16T13:22:27;100984.00;;;31.53;25.54
16613;BME280;8419;52.358;9.752;2022-10-16T13:25:24;100990.00;;;31.46;25.65
16613;BME280;8419;52.358;9.752;2022-10-16T13:28:17;100995.00;;;31.32;25.67
16613;BME280;8419;52.358;9.752;2022-10-16T13:31:09;101002.00;;;31.29;25.70
16613;BME280;8419;52.358;9.752;2022-10-16T13:33:59;100989.00;;;31.32;25.65
16613;BME280;8419;52.358;9.752;2022-10-16T13:36:48;100989.00;;;31.33;25.79
16613;BME280;8419;52.358;9.752;2022-10-16T13:39:37;101001.00;;;31.38;25.73
16613;BME280;8419;52.358;9.752;2022-10-16T13:42:25;101001.00;;;31.55;25.53
16613;BME280;8419;52.358;9.752;2022-10-16T13:45:20;101003.00;;;31.86;25.36
16613;BME280;8419;52.358;9.752;2022-10-16T13:48:09;101002.00;;;31.95;25.16
16613;BME280;8419;52.358;9.752;2022-10-16T13:51:02;101001.00;;;31.75;25.35
16613;BME280;8419;52.358;9.752;2022-10-16T13:53:48;100995.00;;;31.67;25.41
16613;BME280;8419;52.358;9.752;2022-10-16T13:56:34;100989.00;;;31.73;25.35
16613;BME280;8419;52.358;9.752;2022-10-16T13:59:26;100990.00;;;31.81;25.34
16613;BME280;8419;52.358;9.752;2022-10-16T14:02:21;101011.00;;;31.82;25.25
16613;BME280;8419;52.358;9.752;2022-10-16T14:05:09;101008.00;;;31.59;25.38
16613;BME280;8419;52.358;9.752;2022-10-16T14:07:59;101006.00;;;31.28;25.58
16613;BME280;8419;52.358;9.752;2022-10-16T14:10:48;101008.00;;;31.06;25.67
16613;BME280;8419;52.358;9.752;2022-10-16T14:13:38;101006.00;;;30.82;25.89
16613;BME280;8419;52.358;9.752;2022-10-16T14:16:28;101004.00;;;30.80;26.06
16613;BME280;8419;52.358;9.752;2022-10-16T14:19:18;101011.00;;;30.97;25.96
16613;BME280;8419;52.358;9.752;2022-10-16T14:22:26;101023.00;;;31.20;25.70
16613;BME280;8419;52.358;9.752;2022-10-16T14:25:26;101029.00;;;30.93;25.71
16613;BME280;8419;52.358;9.752;2022-10-16T14:28:17;101030.00;;;30.74;25.83
16613;BME280;8419;52.358;9.752;2022-10-16T14:31:23;101033.00;;;30.49;25.98
16613;BME280;8419;52.358;9.752;2022-10-16T14:34:30;101034.00;;;30.37;26.17
16613;BME280;8419;52.358;9.752;2022-10-16T14:37:24;101034.00;;;30.32;26.35
16613;BME280;8419;52.358;9.752;2022-10-16T14:40:14;101023.00;;;30.19;26.47
16613;BME280;8419;52.358;9.752;2022-10-16T14:43:01;101029.00;;;30.09;26.63
16613;BME280;8419;52.358;9.752;2022-10-16T14:45:51;101039.00;;;30.01;26.78
16613;BME280;8419;52.358;9.752;2022-10-16T14:48:41;101037.00;;;30.03;26.89
16613;BME280;8419;52.358;9.752;2022-10-16T14:51:27;101039.00;;;30.01;27.03
16613;BME280;8419;52.358;9.752;2022-10-16T14:54:14;101044.00;;;30.00;27.07
16613;BME280;8419;52.358;9.752;2022-10-16T14:57:00;101045.00;;;30.06;26.98
16613;BME280;8419;52.358;9.752;2022-10-16T14:59:47;101050.00;;;29.99;27.06
16613;BME280;8419;52.358;9.752;2022-10-16T15:02:34;101038.00;;;30.00;27.06